sensor_id;sensor_type;location;lat;lon;timestamp;P1;durP1;ratioP1;P2;durP2;ratioP2
77822;SDS011;67013;49.730;17.292;2023-04-02T00:01:46;28.30;;;12.50;;
77822;SDS011;67013;49.730;17.292;2023-04-02T00:04:17;27.00;;;13.00;;
77822;SDS011;67013;49.730;17.292;2023-04-02T00:06:55;24.60;;;13.80;;
77822;SDS011;67013;49.730;17.292;2023-04-02T00:09:56;27.20;;;14.00;;
77822;SDS011;67013;49.730;17.292;2023-04-02T00:12:26;25.70;;;14.70;;
77822;SDS011;67013;49.730;17.292;2023-04-02T00:14:55;26.70;;;13.30;;
77822;SDS011;67013;49.730;17.292;2023-04-02T00:17:25;29.10;;;13.00;;
77822;SDS011;67013;49.730;17.292;2023-04-02T00:19:57;26.60;;;13.20;;
77822;SDS011;67013;49.730;17.292;2023-04-02T00:22:31;25.70;;;13.00;;
77822;SDS011;67013;49.730;17.292;2023-04-02T00:25:02;25.70;;;12.30;;
77822;SDS011;67013;49.730;17.292;2023-04-02T00:27:39;26.90;;;13.80;;
77822;SDS011;67013;49.730;17.292;2023-04-02T00:30:11;29.10;;;13.50;;
77822;SDS011;67013;49.730;17.292;2023-04-02T00:32:41;30.60;;;15.10;;
77822;SDS011;67013;49.730;17.292;2023-04-02T00:35:15;27.20;;;14.10;;
77822;SDS011;67013;49.730;17.292;2023-04-02T00:37:49;29.10;;;15.20;;
77822;SDS011;67013;49.730;17.292;2023-04-02T00:40:20;23.40;;;12.40;;
77822;SDS011;67013;49.730;17.292;2023-04-02T00:42:55;27.40;;;13.40;;
77822;SDS011;67013;49.730;17.292;2023-04-02T00:45:30;26.40;;;14.00;;
77822;SDS011;67013;49.730;17.292;2023-04-02T00:48:14;29.50;;;14.70;;
77822;SDS011;67013;49.730;17.292;2023-04-02T00:50:53;32.60;;;15.90;;
77822;SDS011;67013;49.730;17.292;2023-04-02T00:53:24;28.20;;;14.00;;
77822;SDS011;67013;49.730;17.292;2023-04-02T00:55:56;27.70;;;13.30;;
77822;SDS011;67013;49.730;17.292;2023-04-02T01:00:58;23.20;;;12.20;;
77822;SDS011;67013;49.730;17.292;2023-04-02T01:03:33;28.60;;;13.00;;
77822;SDS011;67013;49.730;17.292;2023-04-02T01:06:05;29.60;;;13.30;;
77822;SDS011;67013;49.730;17.292;2023-04-02T01:08:43;26.10;;;13.30;;
77822;SDS011;67013;49.730;17.292;2023-04-02T01:14:23;26.90;;;14.20;;
77822;SDS011;67013;49.730;17.292;2023-04-02T01:17:09;29.80;;;13.80;;
77822;SDS011;67013;49.730;17.292;2023-04-02T01:20:00;23.50;;;12.70;;
77822;SDS011;67013;49.730;17.292;2023-04-02T01:22:48;27.30;;;13.60;;
77822;SDS011;67013;49.730;17.292;2023-04-02T01:25:25;23.10;;;12.20;;
77822;SDS011;67013;49.730;17.292;2023-04-02T01:28:04;24.30;;;13.00;;
77822;SDS011;67013;49.730;17.292;2023-04-02T01:30:38;26.70;;;12.50;;
77822;SDS011;67013;49.730;17.292;2023-04-02T01:33:12;26.30;;;13.10;;
77822;SDS011;67013;49.730;17.292;2023-04-02T01:35:42;26.00;;;13.10;;
77822;SDS011;67013;49.730;17.292;2023-04-02T01:38:17;24.50;;;13.00;;
77822;SDS011;67013;49.730;17.292;2023-04-02T01:40:53;25.90;;;13.10;;
77822;SDS011;67013;49.730;17.292;2023-04-02T01:43:31;23.10;;;12.20;;
77822;SDS011;67013;49.730;17.292;2023-04-02T01:46:22;23.10;;;11.30;;
77822;SDS011;67013;49.730;17.292;2023-04-02T01:48:53;25.30;;;12.40;;
77822;SDS011;67013;49.730;17.292;2023-04-02T01:51:26;22.50;;;11.90;;
77822;SDS011;67013;49.730;17.292;2023-04-02T01:53:57;25.60;;;13.10;;
77822;SDS011;67013;49.730;17.292;2023-04-02T01:56:29;28.70;;;13.20;;
77822;SDS011;67013;49.730;17.292;2023-04-02T01:58:59;21.60;;;12.30;;
77822;SDS011;67013;49.730;17.292;2023-04-02T02:01:32;25.40;;;12.40;;
77822;SDS011;67013;49.730;17.292;2023-04-02T02:04:06;26.60;;;14.00;;
77822;SDS011;67013;49.730;17.292;2023-04-02T02:06:40;36.20;;;16.40;;
77822;SDS011;67013;49.730;17.292;2023-04-02T02:09:13;37.80;;;18.60;;
77822;SDS011;67013;49.730;17.292;2023-04-02T02:11:48;26.50;;;13.40;;
77822;SDS011;67013;49.730;17.292;2023-04-02T02:14:19;21.50;;;11.40;;
77822;SDS011;67013;49.730;17.292;2023-04-02T02:16:51;23.30;;;11.80;;
77822;SDS011;67013;49.730;17.292;2023-04-02T02:19:25;24.40;;;12.70;;
77822;SDS011;67013;49.730;17.292;2023-04-02T02:21:59;28.10;;;12.30;;
77822;SDS011;67013;49.730;17.292;2023-04-02T02:24:36;25.80;;;11.40;;
77822;SDS011;67013;49.730;17.292;2023-04-02T02:27:13;24.40;;;12.40;;
77822;SDS011;67013;49.730;17.292;2023-04-02T02:30:08;26.70;;;11.20;;
77822;SDS011;67013;49.730;17.292;2023-04-02T02:32:44;24.10;;;12.40;;
77822;SDS011;67013;49.730;17.292;2023-04-02T02:35:19;22.00;;;11.60;;
77822;SDS011;67013;49.730;17.292;2023-04-02T02:37:54;25.80;;;12.10;;
77822;SDS011;67013;49.730;17.292;2023-04-02T02:40:30;28.40;;;13.20;;
77822;SDS011;67013;49.730;17.292;2023-04-02T02:43:07;25.30;;;12.10;;
77822;SDS011;67013;49.730;17.292;2023-04-02T02:45:39;23.20;;;12.00;;
77822;SDS011;67013;49.730;17.292;2023-04-02T02:48:13;22.00;;;11.00;;
77822;SDS011;67013;49.730;17.292;2023-04-02T02:50:46;23.00;;;11.80;;
77822;SDS011;67013;49.730;17.292;2023-04-02T02:53:18;26.10;;;13.30;;
77822;SDS011;67013;49.730;17.292;2023-04-02T02:55:50;23.00;;;13.10;;
77822;SDS011;67013;49.730;17.292;2023-04-02T02:58:25;29.90;;;13.10;;
77822;SDS011;67013;49.730;17.292;2023-04-02T03:00:58;29.30;;;12.90;;
77822;SDS011;67013;49.730;17.292;2023-04-02T03:03:30;30.10;;;11.70;;
77822;SDS011;67013;49.730;17.292;2023-04-02T03:06:02;34.50;;;12.70;;
77822;SDS011;67013;49.730;17.292;2023-04-02T03:08:34;27.40;;;13.00;;
77822;SDS011;67013;49.730;17.292;2023-04-02T03:11:08;24.70;;;11.60;;
77822;SDS011;67013;49.730;17.292;2023-04-02T03:13:41;27.60;;;13.40;;
77822;SDS011;67013;49.730;17.292;2023-04-02T03:16:15;27.10;;;12.70;;
77822;SDS011;67013;49.730;17.292;2023-04-02T03:18:51;26.20;;;12.00;;
77822;SDS011;67013;49.730;17.292;2023-04-02T03:21:30;24.20;;;11.80;;
77822;SDS011;67013;49.730;17.292;2023-04-02T03:24:07;25.60;;;14.30;;
77822;SDS011;67013;49.730;17.292;2023-04-02T03:26:42;28.40;;;13.30;;
77822;SDS011;67013;49.730;17.292;2023-04-02T03:29:16;28.50;;;14.20;;
77822;SDS011;67013;49.730;17.292;2023-04-02T03:31:51;30.60;;;13.10;;
77822;SDS011;67013;49.730;17.292;2023-04-02T03:34:26;29.10;;;14.20;;
77822;SDS011;67013;49.730;17.292;2023-04-02T03:37:00;31.70;;;13.50;;
77822;SDS011;67013;49.730;17.292;2023-04-02T03:39:34;33.40;;;13.40;;
77822;SDS011;67013;49.730;17.292;2023-04-02T03:42:09;29.50;;;13.50;;
77822;SDS011;67013;49.730;17.292;2023-04-02T03:44:44;28.20;;;13.30;;
77822;SDS011;67013;49.730;17.292;2023-04-02T03:47:19;26.10;;;11.60;;
77822;SDS011;67013;49.730;17.292;2023-04-02T03:49:56;28.10;;;10.80;;
77822;SDS011;67013;49.730;17.292;2023-04-02T03:52:32;26.50;;;11.80;;
77822;SDS011;67013;49.730;17.292;2023-04-02T03:55:08;30.80;;;14.50;;
77822;SDS011;67013;49.730;17.292;2023-04-02T03:57:45;25.70;;;12.90;;
77822;SDS011;67013;49.730;17.292;2023-04-02T04:00:21;25.00;;;11.90;;
77822;SDS011;67013;49.730;17.292;2023-04-02T04:03:01;25.50;;;13.80;;
77822;SDS011;67013;49.730;17.292;2023-04-02T04:05:37;28.40;;;13.60;;
77822;SDS011;67013;49.730;17.292;2023-04-02T04:10:44;20.60;;;11.10;;
77822;SDS011;67013;49.730;17.292;2023-04-02T04:13:21;22.60;;;10.90;;
77822;SDS011;67013;49.730;17.292;2023-04-02T04:15:57;29.90;;;13.20;;
77822;SDS011;67013;49.730;17.292;2023-04-02T04:18:32;27.80;;;13.10;;
77822;SDS011;67013;49.730;17.292;2023-04-02T04:21:12;30.50;;;13.40;;
77822;SDS011;67013;49.730;17.292;2023-04-02T04:23:58;32.80;;;14.00;;
77822;SDS011;67013;49.730;17.292;2023-04-02T04:26:34;26.20;;;13.60;;
77822;SDS011;67013;49.730;17.292;2023-04-02T04:29:08;30.40;;;13.20;;
77822;SDS011;67013;49.730;17.292;2023-04-02T04:31:51;24.20;;;11.20;;
77822;SDS011;67013;49.730;17.292;2023-04-02T04:34:22;25.00;;;11.30;;
77822;SDS011;67013;49.730;17.292;2023-04-02T04:36:57;31.60;;;12.30;;
77822;SDS011;67013;49.730;17.292;2023-04-02T04:39:39;25.90;;;12.00;;
77822;SDS011;67013;49.730;17.292;2023-04-02T04:42:14;28.30;;;14.00;;
77822;SDS011;67013;49.730;17.292;2023-04-02T04:44:50;28.70;;;13.80;;
77822;SDS011;67013;49.730;17.292;2023-04-02T04:47:27;29.10;;;15.50;;
77822;SDS011;67013;49.730;17.292;2023-04-02T04:50:01;32.30;;;14.90;;
77822;SDS011;67013;49.730;17.292;2023-04-02T04:52:35;33.60;;;14.70;;
77822;SDS011;67013;49.730;17.292;2023-04-02T04:55:18;34.00;;;14.30;;
77822;SDS011;67013;49.730;17.292;2023-04-02T04:57:54;28.40;;;12.40;;
77822;SDS011;67013;49.730;17.292;2023-04-02T05:00:32;34.00;;;13.70;;
77822;SDS011;67013;49.730;17.292;2023-04-02T05:03:12;33.30;;;14.30;;
77822;SDS011;67013;49.730;17.292;2023-04-02T05:05:48;31.10;;;14.30;;
77822;SDS011;67013;49.730;17.292;2023-04-02T05:08:18;32.00;;;14.70;;
77822;SDS011;67013;49.730;17.292;2023-04-02T05:10:53;29.80;;;15.50;;
77822;SDS011;67013;49.730;17.292;2023-04-02T05:13:29;39.50;;;17.70;;
77822;SDS011;67013;49.730;17.292;2023-04-02T05:16:06;33.80;;;14.80;;
77822;SDS011;67013;49.730;17.292;2023-04-02T05:18:44;40.00;;;15.10;;
77822;SDS011;67013;49.730;17.292;2023-04-02T05:21:19;40.50;;;15.90;;
77822;SDS011;67013;49.730;17.292;2023-04-02T05:23:53;36.80;;;15.40;;
77822;SDS011;67013;49.730;17.292;2023-04-02T05:26:28;33.90;;;14.10;;
77822;SDS011;67013;49.730;17.292;2023-04-02T05:29:00;29.90;;;14.30;;
77822;SDS011;67013;49.730;17.292;2023-04-02T05:31:37;25.20;;;11.40;;
77822;SDS011;67013;49.730;17.292;2023-04-02T05:34:11;23.80;;;10.90;;
77822;SDS011;67013;49.730;17.292;2023-04-02T05:36:48;12.10;;;5.40;;
77822;SDS011;67013;49.730;17.292;2023-04-02T05:39:18;12.60;;;5.40;;
77822;SDS011;67013;49.730;17.292;2023-04-02T05:41:56;11.70;;;4.50;;
77822;SDS011;67013;49.730;17.292;2023-04-02T05:44:28;10.30;;;4.00;;
77822;SDS011;67013;49.730;17.292;2023-04-02T05:47:01;9.00;;;3.50;;
77822;SDS011;67013;49.730;17.292;2023-04-02T05:49:38;9.20;;;4.70;;
77822;SDS011;67013;49.730;17.292;2023-04-02T05:52:15;13.90;;;6.30;;
77822;SDS011;67013;49.730;17.292;2023-04-02T05:54:50;4.90;;;2.20;;
77822;SDS011;67013;49.730;17.292;2023-04-02T05:57:29;5.60;;;1.90;;
77822;SDS011;67013;49.730;17.292;2023-04-02T06:00:04;4.50;;;2.00;;
77822;SDS011;67013;49.730;17.292;2023-04-02T06:02:43;6.40;;;2.70;;
77822;SDS011;67013;49.730;17.292;2023-04-02T06:05:21;6.00;;;2.80;;
77822;SDS011;67013;49.730;17.292;2023-04-02T06:07:54;6.50;;;2.40;;
77822;SDS011;67013;49.730;17.292;2023-04-02T06:10:28;7.30;;;2.40;;
77822;SDS011;67013;49.730;17.292;2023-04-02T06:13:01;5.30;;;2.80;;
77822;SDS011;67013;49.730;17.292;2023-04-02T06:15:33;6.00;;;2.40;;
77822;SDS011;67013;49.730;17.292;2023-04-02T06:18:06;5.80;;;2.10;;
77822;SDS011;67013;49.730;17.292;2023-04-02T06:20:42;5.20;;;1.50;;
77822;SDS011;67013;49.730;17.292;2023-04-02T06:23:12;6.20;;;2.40;;
77822;SDS011;67013;49.730;17.292;2023-04-02T06:25:46;5.70;;;1.90;;
77822;SDS011;67013;49.730;17.292;2023-04-02T06:28:20;7.60;;;2.40;;
77822;SDS011;67013;49.730;17.292;2023-04-02T06:30:56;8.90;;;2.20;;
77822;SDS011;67013;49.730;17.292;2023-04-02T06:33:31;6.00;;;2.40;;
77822;SDS011;67013;49.730;17.292;2023-04-02T06:36:00;5.90;;;1.90;;
77822;SDS011;67013;49.730;17.292;2023-04-02T06:38:32;5.80;;;1.90;;
77822;SDS011;67013;49.730;17.292;2023-04-02T06:41:04;5.80;;;2.00;;
77822;SDS011;67013;49.730;17.292;2023-04-02T06:43:41;5.00;;;1.70;;
77822;SDS011;67013;49.730;17.292;2023-04-02T06:46:15;7.70;;;2.10;;
77822;SDS011;67013;49.730;17.292;2023-04-02T06:48:49;8.00;;;2.60;;
77822;SDS011;67013;49.730;17.292;2023-04-02T06:51:23;9.00;;;5.50;;
77822;SDS011;67013;49.730;17.292;2023-04-02T06:53:55;6.80;;;3.60;;
77822;SDS011;67013;49.730;17.292;2023-04-02T06:56:27;9.60;;;2.90;;
77822;SDS011;67013;49.730;17.292;2023-04-02T06:59:07;8.70;;;3.10;;
77822;SDS011;67013;49.730;17.292;2023-04-02T07:01:39;9.20;;;4.80;;
77822;SDS011;67013;49.730;17.292;2023-04-02T07:04:13;7.60;;;3.00;;
77822;SDS011;67013;49.730;17.292;2023-04-02T07:06:43;8.10;;;3.20;;
77822;SDS011;67013;49.730;17.292;2023-04-02T07:09:12;5.50;;;2.60;;
77822;SDS011;67013;49.730;17.292;2023-04-02T07:11:42;7.50;;;3.40;;
77822;SDS011;67013;49.730;17.292;2023-04-02T07:14:12;8.10;;;2.40;;
77822;SDS011;67013;49.730;17.292;2023-04-02T07:16:42;11.70;;;5.30;;
77822;SDS011;67013;49.730;17.292;2023-04-02T07:19:16;9.90;;;3.80;;
77822;SDS011;67013;49.730;17.292;2023-04-02T07:21:47;10.70;;;3.50;;
77822;SDS011;67013;49.730;17.292;2023-04-02T07:24:17;16.80;;;5.70;;
77822;SDS011;67013;49.730;17.292;2023-04-02T07:26:46;31.60;;;7.20;;
77822;SDS011;67013;49.730;17.292;2023-04-02T07:29:16;12.30;;;3.80;;
77822;SDS011;67013;49.730;17.292;2023-04-02T07:31:46;9.40;;;3.30;;
77822;SDS011;67013;49.730;17.292;2023-04-02T07:34:15;5.30;;;2.10;;
77822;SDS011;67013;49.730;17.292;2023-04-02T07:36:45;4.70;;;1.60;;
77822;SDS011;67013;49.730;17.292;2023-04-02T07:39:15;3.90;;;1.50;;
77822;SDS011;67013;49.730;17.292;2023-04-02T07:41:51;4.60;;;1.80;;
77822;SDS011;67013;49.730;17.292;2023-04-02T07:44:22;5.20;;;1.80;;
77822;SDS011;67013;49.730;17.292;2023-04-02T07:46:51;4.20;;;1.30;;
77822;SDS011;67013;49.730;17.292;2023-04-02T07:49:21;4.00;;;2.00;;
77822;SDS011;67013;49.730;17.292;2023-04-02T07:51:50;3.90;;;2.30;;
77822;SDS011;67013;49.730;17.292;2023-04-02T07:54:20;5.00;;;2.20;;
77822;SDS011;67013;49.730;17.292;2023-04-02T07:56:49;6.90;;;2.80;;
77822;SDS011;67013;49.730;17.292;2023-04-02T07:59:19;7.60;;;3.00;;
77822;SDS011;67013;49.730;17.292;2023-04-02T08:01:48;5.90;;;2.00;;
77822;SDS011;67013;49.730;17.292;2023-04-02T08:04:18;5.70;;;1.50;;
77822;SDS011;67013;49.730;17.292;2023-04-02T08:06:49;6.30;;;2.40;;
77822;SDS011;67013;49.730;17.292;2023-04-02T08:09:19;3.80;;;1.70;;
77822;SDS011;67013;49.730;17.292;2023-04-02T08:11:48;5.30;;;1.90;;
77822;SDS011;67013;49.730;17.292;2023-04-02T08:14:18;7.90;;;2.60;;
77822;SDS011;67013;49.730;17.292;2023-04-02T08:16:48;3.90;;;1.60;;
77822;SDS011;67013;49.730;17.292;2023-04-02T08:19:21;8.20;;;2.20;;
77822;SDS011;67013;49.730;17.292;2023-04-02T08:21:51;4.20;;;1.60;;
77822;SDS011;67013;49.730;17.292;2023-04-02T08:24:20;3.80;;;1.40;;
77822;SDS011;67013;49.730;17.292;2023-04-02T08:26:50;2.20;;;1.00;;
77822;SDS011;67013;49.730;17.292;2023-04-02T08:29:20;5.10;;;1.70;;
77822;SDS011;67013;49.730;17.292;2023-04-02T08:31:50;4.90;;;1.30;;
77822;SDS011;67013;49.730;17.292;2023-04-02T08:34:19;3.10;;;1.30;;
77822;SDS011;67013;49.730;17.292;2023-04-02T08:36:49;3.60;;;1.60;;
77822;SDS011;67013;49.730;17.292;2023-04-02T08:39:22;2.70;;;1.00;;
77822;SDS011;67013;49.730;17.292;2023-04-02T08:41:57;3.60;;;1.10;;
77822;SDS011;67013;49.730;17.292;2023-04-02T08:44:37;8.30;;;3.30;;
77822;SDS011;67013;49.730;17.292;2023-04-02T08:47:16;3.70;;;1.50;;
77822;SDS011;67013;49.730;17.292;2023-04-02T08:49:48;4.30;;;1.40;;
77822;SDS011;67013;49.730;17.292;2023-04-02T08:52:22;6.00;;;2.10;;
77822;SDS011;67013;49.730;17.292;2023-04-02T08:54:53;4.60;;;1.80;;
77822;SDS011;67013;49.730;17.292;2023-04-02T08:57:28;5.40;;;2.70;;
77822;SDS011;67013;49.730;17.292;2023-04-02T09:00:06;10.20;;;4.60;;
77822;SDS011;67013;49.730;17.292;2023-04-02T09:02:51;8.10;;;3.30;;
77822;SDS011;67013;49.730;17.292;2023-04-02T09:05:26;5.90;;;2.10;;
77822;SDS011;67013;49.730;17.292;2023-04-02T09:08:00;6.00;;;2.10;;
77822;SDS011;67013;49.730;17.292;2023-04-02T09:10:32;6.90;;;2.70;;
77822;SDS011;67013;49.730;17.292;2023-04-02T09:13:06;5.40;;;2.10;;
77822;SDS011;67013;49.730;17.292;2023-04-02T09:15:44;5.40;;;2.00;;
77822;SDS011;67013;49.730;17.292;2023-04-02T09:18:15;4.70;;;2.20;;
77822;SDS011;67013;49.730;17.292;2023-04-02T09:20:45;6.80;;;2.80;;
77822;SDS011;67013;49.730;17.292;2023-04-02T09:23:16;7.50;;;2.90;;
77822;SDS011;67013;49.730;17.292;2023-04-02T09:25:49;6.20;;;2.30;;
77822;SDS011;67013;49.730;17.292;2023-04-02T09:28:20;7.00;;;3.40;;
77822;SDS011;67013;49.730;17.292;2023-04-02T09:30:59;7.30;;;3.30;;
77822;SDS011;67013;49.730;17.292;2023-04-02T09:33:42;7.00;;;3.00;;
77822;SDS011;67013;49.730;17.292;2023-04-02T09:36:25;6.20;;;2.60;;
77822;SDS011;67013;49.730;17.292;2023-04-02T09:39:03;14.60;;;5.70;;
77822;SDS011;67013;49.730;17.292;2023-04-02T09:41:42;7.60;;;3.40;;
77822;SDS011;67013;49.730;17.292;2023-04-02T09:44:17;8.70;;;3.90;;
77822;SDS011;67013;49.730;17.292;2023-04-02T09:46:50;6.70;;;2.70;;
77822;SDS011;67013;49.730;17.292;2023-04-02T09:49:26;5.30;;;2.70;;
77822;SDS011;67013;49.730;17.292;2023-04-02T09:55:11;7.00;;;3.00;;
77822;SDS011;67013;49.730;17.292;2023-04-02T09:57:50;13.30;;;5.20;;
77822;SDS011;67013;49.730;17.292;2023-04-02T10:00:37;9.10;;;3.40;;
77822;SDS011;67013;49.730;17.292;2023-04-02T10:03:20;8.20;;;3.80;;
77822;SDS011;67013;49.730;17.292;2023-04-02T10:06:05;15.60;;;6.00;;
77822;SDS011;67013;49.730;17.292;2023-04-02T10:08:37;12.40;;;4.70;;
77822;SDS011;67013;49.730;17.292;2023-04-02T10:11:09;12.30;;;4.50;;
77822;SDS011;67013;49.730;17.292;2023-04-02T10:13:42;10.90;;;4.70;;
77822;SDS011;67013;49.730;17.292;2023-04-02T10:16:18;16.00;;;6.60;;
77822;SDS011;67013;49.730;17.292;2023-04-02T10:18:52;14.40;;;6.20;;
77822;SDS011;67013;49.730;17.292;2023-04-02T10:21:26;16.60;;;7.50;;
77822;SDS011;67013;49.730;17.292;2023-04-02T10:23:59;13.40;;;5.70;;
77822;SDS011;67013;49.730;17.292;2023-04-02T10:26:34;10.80;;;4.70;;
77822;SDS011;67013;49.730;17.292;2023-04-02T10:29:14;14.70;;;6.70;;
77822;SDS011;67013;49.730;17.292;2023-04-02T10:31:56;12.80;;;5.90;;
77822;SDS011;67013;49.730;17.292;2023-04-02T10:34:32;13.20;;;5.70;;
77822;SDS011;67013;49.730;17.292;2023-04-02T10:37:10;15.30;;;6.70;;
77822;SDS011;67013;49.730;17.292;2023-04-02T10:39:54;14.60;;;7.50;;
77822;SDS011;67013;49.730;17.292;2023-04-02T10:42:30;16.80;;;6.90;;
77822;SDS011;67013;49.730;17.292;2023-04-02T10:45:11;16.40;;;7.20;;
77822;SDS011;67013;49.730;17.292;2023-04-02T10:47:52;18.00;;;7.50;;
77822;SDS011;67013;49.730;17.292;2023-04-02T10:50:30;13.00;;;4.90;;
77822;SDS011;67013;49.730;17.292;2023-04-02T10:53:08;17.20;;;7.50;;
77822;SDS011;67013;49.730;17.292;2023-04-02T10:55:42;9.10;;;4.70;;
77822;SDS011;67013;49.730;17.292;2023-04-02T10:58:17;15.30;;;7.10;;
77822;SDS011;67013;49.730;17.292;2023-04-02T11:00:52;15.60;;;6.40;;
77822;SDS011;67013;49.730;17.292;2023-04-02T11:03:28;15.10;;;7.50;;
77822;SDS011;67013;49.730;17.292;2023-04-02T11:06:03;17.40;;;6.90;;
77822;SDS011;67013;49.730;17.292;2023-04-02T11:08:41;16.10;;;6.90;;
77822;SDS011;67013;49.730;17.292;2023-04-02T11:11:14;21.80;;;8.10;;
77822;SDS011;67013;49.730;17.292;2023-04-02T11:13:48;13.10;;;5.50;;
77822;SDS011;67013;49.730;17.292;2023-04-02T11:16:22;14.00;;;6.00;;
77822;SDS011;67013;49.730;17.292;2023-04-02T11:19:15;16.70;;;7.20;;
77822;SDS011;67013;49.730;17.292;2023-04-02T11:21:50;14.90;;;5.30;;
77822;SDS011;67013;49.730;17.292;2023-04-02T11:24:26;14.40;;;5.20;;
77822;SDS011;67013;49.730;17.292;2023-04-02T11:27:21;12.40;;;5.00;;
77822;SDS011;67013;49.730;17.292;2023-04-02T11:29:56;13.60;;;5.70;;
77822;SDS011;67013;49.730;17.292;2023-04-02T11:32:34;14.50;;;7.30;;
77822;SDS011;67013;49.730;17.292;2023-04-02T11:41:10;13.20;;;6.40;;
77822;SDS011;67013;49.730;17.292;2023-04-02T11:46:44;18.20;;;7.30;;
77822;SDS011;67013;49.730;17.292;2023-04-02T11:52:02;15.10;;;6.10;;
77822;SDS011;67013;49.730;17.292;2023-04-02T11:54:46;17.50;;;7.30;;
77822;SDS011;67013;49.730;17.292;2023-04-02T11:57:28;12.90;;;6.70;;
77822;SDS011;67013;49.730;17.292;2023-04-02T12:03:33;15.90;;;6.90;;
77822;SDS011;67013;49.730;17.292;2023-04-02T12:06:20;14.80;;;6.60;;
77822;SDS011;67013;49.730;17.292;2023-04-02T12:09:00;15.50;;;6.10;;
77822;SDS011;67013;49.730;17.292;2023-04-02T12:11:38;11.80;;;6.00;;
77822;SDS011;67013;49.730;17.292;2023-04-02T12:17:00;17.80;;;7.70;;
77822;SDS011;67013;49.730;17.292;2023-04-02T12:19:31;16.50;;;6.50;;
77822;SDS011;67013;49.730;17.292;2023-04-02T12:22:01;16.70;;;7.20;;
77822;SDS011;67013;49.730;17.292;2023-04-02T12:24:31;17.20;;;7.30;;
77822;SDS011;67013;49.730;17.292;2023-04-02T12:27:07;20.80;;;9.60;;
77822;SDS011;67013;49.730;17.292;2023-04-02T12:29:43;13.90;;;6.90;;
77822;SDS011;67013;49.730;17.292;2023-04-02T12:32:18;19.90;;;8.30;;
77822;SDS011;67013;49.730;17.292;2023-04-02T12:34:52;13.90;;;5.70;;
77822;SDS011;67013;49.730;17.292;2023-04-02T12:37:23;16.60;;;8.10;;
77822;SDS011;67013;49.730;17.292;2023-04-02T12:42:28;14.90;;;6.30;;
77822;SDS011;67013;49.730;17.292;2023-04-02T12:45:00;13.90;;;5.20;;
77822;SDS011;67013;49.730;17.292;2023-04-02T12:47:32;17.50;;;7.10;;
77822;SDS011;67013;49.730;17.292;2023-04-02T12:50:02;17.20;;;7.40;;
77822;SDS011;67013;49.730;17.292;2023-04-02T12:52:33;12.20;;;5.40;;
77822;SDS011;67013;49.730;17.292;2023-04-02T12:55:02;16.10;;;7.50;;
77822;SDS011;67013;49.730;17.292;2023-04-02T12:57:43;16.20;;;6.30;;
77822;SDS011;67013;49.730;17.292;2023-04-02T13:00:34;13.00;;;6.00;;
77822;SDS011;67013;49.730;17.292;2023-04-02T13:03:18;10.40;;;5.00;;
77822;SDS011;67013;49.730;17.292;2023-04-02T13:05:49;13.90;;;6.00;;
77822;SDS011;67013;49.730;17.292;2023-04-02T13:08:23;21.60;;;10.00;;
77822;SDS011;67013;49.730;17.292;2023-04-02T13:10:56;14.50;;;8.00;;
77822;SDS011;67013;49.730;17.292;2023-04-02T13:13:30;17.70;;;8.10;;
77822;SDS011;67013;49.730;17.292;2023-04-02T13:16:06;14.60;;;7.10;;
77822;SDS011;67013;49.730;17.292;2023-04-02T13:21:45;15.60;;;7.40;;
77822;SDS011;67013;49.730;17.292;2023-04-02T13:24:17;15.40;;;7.20;;
77822;SDS011;67013;49.730;17.292;2023-04-02T13:26:48;16.50;;;7.30;;
77822;SDS011;67013;49.730;17.292;2023-04-02T13:29:22;13.20;;;5.10;;
77822;SDS011;67013;49.730;17.292;2023-04-02T13:34:22;15.70;;;6.80;;
77822;SDS011;67013;49.730;17.292;2023-04-02T13:36:52;14.80;;;5.70;;
77822;SDS011;67013;49.730;17.292;2023-04-02T13:39:22;10.00;;;5.20;;
77822;SDS011;67013;49.730;17.292;2023-04-02T13:41:54;18.00;;;6.90;;
77822;SDS011;67013;49.730;17.292;2023-04-02T13:46:54;13.50;;;6.10;;
77822;SDS011;67013;49.730;17.292;2023-04-02T13:49:24;17.90;;;8.00;;
77822;SDS011;67013;49.730;17.292;2023-04-02T13:51:54;19.10;;;6.80;;
77822;SDS011;67013;49.730;17.292;2023-04-02T13:54:29;14.40;;;7.50;;
77822;SDS011;67013;49.730;17.292;2023-04-02T13:57:02;15.40;;;5.70;;
77822;SDS011;67013;49.730;17.292;2023-04-02T13:59:32;13.50;;;5.40;;
77822;SDS011;67013;49.730;17.292;2023-04-02T14:02:03;11.10;;;5.00;;
77822;SDS011;67013;49.730;17.292;2023-04-02T14:04:36;19.90;;;7.10;;
77822;SDS011;67013;49.730;17.292;2023-04-02T14:07:21;15.90;;;6.80;;
77822;SDS011;67013;49.730;17.292;2023-04-02T14:10:00;12.10;;;5.40;;
77822;SDS011;67013;49.730;17.292;2023-04-02T14:12:47;13.70;;;5.70;;
77822;SDS011;67013;49.730;17.292;2023-04-02T14:15:31;16.60;;;8.10;;
77822;SDS011;67013;49.730;17.292;2023-04-02T14:18:15;16.30;;;7.10;;
77822;SDS011;67013;49.730;17.292;2023-04-02T14:20:55;18.50;;;8.00;;
77822;SDS011;67013;49.730;17.292;2023-04-02T14:23:37;22.70;;;9.90;;
77822;SDS011;67013;49.730;17.292;2023-04-02T14:26:18;17.60;;;6.80;;
77822;SDS011;67013;49.730;17.292;2023-04-02T14:28:57;15.10;;;7.00;;
77822;SDS011;67013;49.730;17.292;2023-04-02T14:31:36;15.10;;;7.50;;
77822;SDS011;67013;49.730;17.292;2023-04-02T14:34:12;21.70;;;10.00;;
77822;SDS011;67013;49.730;17.292;2023-04-02T14:36:51;17.10;;;7.40;;
77822;SDS011;67013;49.730;17.292;2023-04-02T14:39:30;21.30;;;8.90;;
77822;SDS011;67013;49.730;17.292;2023-04-02T14:42:09;21.20;;;8.40;;
77822;SDS011;67013;49.730;17.292;2023-04-02T14:44:43;19.10;;;9.00;;
77822;SDS011;67013;49.730;17.292;2023-04-02T14:47:18;17.80;;;8.30;;
77822;SDS011;67013;49.730;17.292;2023-04-02T14:49:51;19.50;;;8.70;;
77822;SDS011;67013;49.730;17.292;2023-04-02T14:52:25;15.00;;;7.30;;
77822;SDS011;67013;49.730;17.292;2023-04-02T14:55:00;22.10;;;10.00;;
77822;SDS011;67013;49.730;17.292;2023-04-02T14:57:34;21.50;;;8.40;;
77822;SDS011;67013;49.730;17.292;2023-04-02T15:00:15;21.20;;;8.70;;
77822;SDS011;67013;49.730;17.292;2023-04-02T15:03:01;20.00;;;6.50;;
77822;SDS011;67013;49.730;17.292;2023-04-02T15:05:39;16.30;;;7.20;;
77822;SDS011;67013;49.730;17.292;2023-04-02T15:08:14;14.80;;;6.80;;
77822;SDS011;67013;49.730;17.292;2023-04-02T15:10:53;21.50;;;8.80;;
77822;SDS011;67013;49.730;17.292;2023-04-02T15:13:27;13.80;;;6.00;;
77822;SDS011;67013;49.730;17.292;2023-04-02T15:16:09;17.30;;;6.90;;
77822;SDS011;67013;49.730;17.292;2023-04-02T15:18:41;17.50;;;6.50;;
77822;SDS011;67013;49.730;17.292;2023-04-02T15:21:17;14.90;;;6.50;;
77822;SDS011;67013;49.730;17.292;2023-04-02T15:24:03;19.70;;;7.90;;
77822;SDS011;67013;49.730;17.292;2023-04-02T15:26:40;15.50;;;6.40;;
77822;SDS011;67013;49.730;17.292;2023-04-02T15:29:23;21.20;;;9.20;;
77822;SDS011;67013;49.730;17.292;2023-04-02T15:32:04;31.90;;;10.40;;
77822;SDS011;67013;49.730;17.292;2023-04-02T15:34:44;20.70;;;8.60;;
77822;SDS011;67013;49.730;17.292;2023-04-02T15:37:20;30.10;;;9.90;;
77822;SDS011;67013;49.730;17.292;2023-04-02T15:40:04;20.70;;;9.00;;
77822;SDS011;67013;49.730;17.292;2023-04-02T15:42:55;25.90;;;10.90;;
77822;SDS011;67013;49.730;17.292;2023-04-02T15:45:37;29.90;;;12.50;;
77822;SDS011;67013;49.730;17.292;2023-04-02T15:48:21;18.30;;;7.90;;